sensor_id;sensor_type;location;lat;lon;timestamp;P1;durP1;ratioP1;P2;durP2;ratioP2
72439;SDS011;60446;50.752;4.352;2023-07-22T00:01:43;11.70;;;4.00;;
72439;SDS011;60446;50.752;4.352;2023-07-22T00:04:10;10.25;;;3.55;;
72439;SDS011;60446;50.752;4.352;2023-07-22T00:06:37;10.80;;;3.70;;
72439;SDS011;60446;50.752;4.352;2023-07-22T00:09:04;12.35;;;3.90;;
72439;SDS011;60446;50.752;4.352;2023-07-22T00:11:32;13.18;;;4.57;;
72439;SDS011;60446;50.752;4.352;2023-07-22T00:13:59;11.17;;;4.13;;
72439;SDS011;60446;50.752;4.352;2023-07-22T00:16:26;10.88;;;4.22;;
72439;SDS011;60446;50.752;4.352;2023-07-22T00:18:56;12.70;;;4.47;;
72439;SDS011;60446;50.752;4.352;2023-07-22T00:21:23;13.25;;;3.95;;
72439;SDS011;60446;50.752;4.352;2023-07-22T00:23:50;13.38;;;4.55;;
72439;SDS011;60446;50.752;4.352;2023-07-22T00:26:17;12.67;;;4.43;;
72439;SDS011;60446;50.752;4.352;2023-07-22T00:28:44;13.68;;;4.72;;
72439;SDS011;60446;50.752;4.352;2023-07-22T00:31:12;14.00;;;5.03;;
72439;SDS011;60446;50.752;4.352;2023-07-22T00:33:39;12.57;;;4.03;;
72439;SDS011;60446;50.752;4.352;2023-07-22T00:36:06;12.88;;;4.07;;
72439;SDS011;60446;50.752;4.352;2023-07-22T00:38:34;13.33;;;4.60;;
72439;SDS011;60446;50.752;4.352;2023-07-22T00:41:01;11.55;;;4.35;;
72439;SDS011;60446;50.752;4.352;2023-07-22T00:43:31;12.48;;;4.65;;
72439;SDS011;60446;50.752;4.352;2023-07-22T00:45:58;10.82;;;4.30;;
72439;SDS011;60446;50.752;4.352;2023-07-22T00:48:26;14.07;;;4.75;;
72439;SDS011;60446;50.752;4.352;2023-07-22T00:50:54;12.53;;;4.03;;
72439;SDS011;60446;50.752;4.352;2023-07-22T00:53:21;13.68;;;3.92;;
72439;SDS011;60446;50.752;4.352;2023-07-22T00:55:48;13.55;;;4.60;;
72439;SDS011;60446;50.752;4.352;2023-07-22T00:58:16;11.88;;;4.05;;
72439;SDS011;60446;50.752;4.352;2023-07-22T01:00:43;14.50;;;4.53;;
72439;SDS011;60446;50.752;4.352;2023-07-22T01:03:10;11.90;;;3.93;;
72439;SDS011;60446;50.752;4.352;2023-07-22T01:05:38;13.52;;;4.43;;
72439;SDS011;60446;50.752;4.352;2023-07-22T01:08:06;14.82;;;4.70;;
72439;SDS011;60446;50.752;4.352;2023-07-22T01:10:33;13.35;;;4.15;;
72439;SDS011;60446;50.752;4.352;2023-07-22T01:13:00;15.40;;;3.97;;
72439;SDS011;60446;50.752;4.352;2023-07-22T01:15:27;11.83;;;4.70;;
72439;SDS011;60446;50.752;4.352;2023-07-22T01:17:55;12.05;;;4.40;;
72439;SDS011;60446;50.752;4.352;2023-07-22T01:20:31;14.48;;;3.90;;
72439;SDS011;60446;50.752;4.352;2023-07-22T01:22:58;13.15;;;4.45;;
72439;SDS011;60446;50.752;4.352;2023-07-22T01:25:26;12.77;;;4.15;;
72439;SDS011;60446;50.752;4.352;2023-07-22T01:27:56;12.60;;;4.03;;
72439;SDS011;60446;50.752;4.352;2023-07-22T01:30:23;13.75;;;4.13;;
72439;SDS011;60446;50.752;4.352;2023-07-22T01:32:51;13.55;;;4.85;;
72439;SDS011;60446;50.752;4.352;2023-07-22T01:35:19;13.45;;;4.40;;
72439;SDS011;60446;50.752;4.352;2023-07-22T01:37:47;12.65;;;4.75;;
72439;SDS011;60446;50.752;4.352;2023-07-22T01:40:14;11.63;;;4.67;;
72439;SDS011;60446;50.752;4.352;2023-07-22T01:42:41;13.02;;;4.55;;
72439;SDS011;60446;50.752;4.352;2023-07-22T01:45:09;13.38;;;4.45;;
72439;SDS011;60446;50.752;4.352;2023-07-22T01:47:38;13.80;;;4.72;;
72439;SDS011;60446;50.752;4.352;2023-07-22T01:50:07;14.25;;;4.32;;
72439;SDS011;60446;50.752;4.352;2023-07-22T01:52:36;11.93;;;3.93;;
72439;SDS011;60446;50.752;4.352;2023-07-22T01:55:03;14.55;;;4.88;;
72439;SDS011;60446;50.752;4.352;2023-07-22T01:57:32;12.70;;;3.78;;
72439;SDS011;60446;50.752;4.352;2023-07-22T02:00:01;13.75;;;4.32;;
72439;SDS011;60446;50.752;4.352;2023-07-22T02:02:38;13.20;;;4.05;;
72439;SDS011;60446;50.752;4.352;2023-07-22T02:05:06;13.33;;;4.77;;
72439;SDS011;60446;50.752;4.352;2023-07-22T02:07:37;13.32;;;4.60;;
72439;SDS011;60446;50.752;4.352;2023-07-22T02:10:05;13.57;;;4.30;;
72439;SDS011;60446;50.752;4.352;2023-07-22T02:12:33;14.35;;;4.15;;
72439;SDS011;60446;50.752;4.352;2023-07-22T02:15:00;12.95;;;4.72;;
72439;SDS011;60446;50.752;4.352;2023-07-22T02:17:28;13.17;;;4.20;;
72439;SDS011;60446;50.752;4.352;2023-07-22T02:19:57;13.32;;;4.55;;
72439;SDS011;60446;50.752;4.352;2023-07-22T02:22:24;12.13;;;4.10;;
72439;SDS011;60446;50.752;4.352;2023-07-22T02:24:52;17.25;;;4.80;;
72439;SDS011;60446;50.752;4.352;2023-07-22T02:27:19;14.88;;;4.40;;
72439;SDS011;60446;50.752;4.352;2023-07-22T02:29:46;15.00;;;5.00;;
72439;SDS011;60446;50.752;4.352;2023-07-22T02:32:14;13.65;;;4.78;;
72439;SDS011;60446;50.752;4.352;2023-07-22T02:34:41;12.85;;;4.35;;
72439;SDS011;60446;50.752;4.352;2023-07-22T02:37:08;16.48;;;4.72;;
72439;SDS011;60446;50.752;4.352;2023-07-22T02:39:35;15.00;;;4.97;;
72439;SDS011;60446;50.752;4.352;2023-07-22T02:42:03;14.40;;;4.60;;
72439;SDS011;60446;50.752;4.352;2023-07-22T02:44:31;16.25;;;4.90;;
72439;SDS011;60446;50.752;4.352;2023-07-22T02:46:58;15.32;;;4.47;;
72439;SDS011;60446;50.752;4.352;2023-07-22T02:49:25;16.50;;;4.78;;
72439;SDS011;60446;50.752;4.352;2023-07-22T02:51:52;14.40;;;5.05;;
72439;SDS011;60446;50.752;4.352;2023-07-22T02:54:19;14.83;;;4.90;;
72439;SDS011;60446;50.752;4.352;2023-07-22T02:56:47;14.05;;;4.72;;
72439;SDS011;60446;50.752;4.352;2023-07-22T02:59:14;15.57;;;5.18;;
72439;SDS011;60446;50.752;4.352;2023-07-22T03:01:41;15.55;;;4.95;;
72439;SDS011;60446;50.752;4.352;2023-07-22T03:04:08;19.27;;;5.40;;
72439;SDS011;60446;50.752;4.352;2023-07-22T03:06:35;16.93;;;4.77;;
72439;SDS011;60446;50.752;4.352;2023-07-22T03:09:03;15.07;;;5.28;;
72439;SDS011;60446;50.752;4.352;2023-07-22T03:11:31;14.57;;;4.32;;
72439;SDS011;60446;50.752;4.352;2023-07-22T03:13:58;14.98;;;4.75;;
72439;SDS011;60446;50.752;4.352;2023-07-22T03:16:26;17.13;;;5.03;;
72439;SDS011;60446;50.752;4.352;2023-07-22T03:18:53;17.90;;;5.03;;
72439;SDS011;60446;50.752;4.352;2023-07-22T03:21:21;17.23;;;5.80;;
72439;SDS011;60446;50.752;4.352;2023-07-22T03:23:48;14.35;;;4.75;;
72439;SDS011;60446;50.752;4.352;2023-07-22T03:26:15;15.13;;;4.75;;
72439;SDS011;60446;50.752;4.352;2023-07-22T03:28:42;17.08;;;5.10;;
72439;SDS011;60446;50.752;4.352;2023-07-22T03:31:10;15.97;;;5.47;;
72439;SDS011;60446;50.752;4.352;2023-07-22T03:33:37;15.15;;;5.10;;
72439;SDS011;60446;50.752;4.352;2023-07-22T03:36:05;17.48;;;4.88;;
72439;SDS011;60446;50.752;4.352;2023-07-22T03:38:33;14.45;;;5.15;;
72439;SDS011;60446;50.752;4.352;2023-07-22T03:41:00;16.08;;;4.72;;
72439;SDS011;60446;50.752;4.352;2023-07-22T03:43:27;16.03;;;5.37;;
72439;SDS011;60446;50.752;4.352;2023-07-22T03:45:55;21.08;;;5.70;;
72439;SDS011;60446;50.752;4.352;2023-07-22T03:48:22;18.55;;;4.90;;
72439;SDS011;60446;50.752;4.352;2023-07-22T03:50:49;16.58;;;5.40;;
72439;SDS011;60446;50.752;4.352;2023-07-22T03:53:27;15.50;;;5.15;;
72439;SDS011;60446;50.752;4.352;2023-07-22T03:55:54;17.33;;;5.23;;
72439;SDS011;60446;50.752;4.352;2023-07-22T03:58:22;15.95;;;4.68;;
72439;SDS011;60446;50.752;4.352;2023-07-22T04:00:49;17.42;;;5.47;;
72439;SDS011;60446;50.752;4.352;2023-07-22T04:03:16;13.95;;;4.88;;
72439;SDS011;60446;50.752;4.352;2023-07-22T04:05:44;16.58;;;5.07;;
72439;SDS011;60446;50.752;4.352;2023-07-22T04:08:11;16.90;;;5.63;;
72439;SDS011;60446;50.752;4.352;2023-07-22T04:10:38;14.50;;;5.10;;
72439;SDS011;60446;50.752;4.352;2023-07-22T04:13:05;16.75;;;5.25;;
72439;SDS011;60446;50.752;4.352;2023-07-22T04:15:33;15.60;;;5.20;;
72439;SDS011;60446;50.752;4.352;2023-07-22T04:18:00;17.20;;;4.78;;
72439;SDS011;60446;50.752;4.352;2023-07-22T04:20:27;17.67;;;5.13;;
72439;SDS011;60446;50.752;4.352;2023-07-22T04:22:54;16.90;;;5.10;;
72439;SDS011;60446;50.752;4.352;2023-07-22T04:25:22;17.30;;;5.88;;
72439;SDS011;60446;50.752;4.352;2023-07-22T04:27:49;17.38;;;5.72;;
72439;SDS011;60446;50.752;4.352;2023-07-22T04:30:16;15.68;;;5.18;;
72439;SDS011;60446;50.752;4.352;2023-07-22T04:32:47;15.77;;;4.97;;
72439;SDS011;60446;50.752;4.352;2023-07-22T04:35:16;19.52;;;5.72;;
72439;SDS011;60446;50.752;4.352;2023-07-22T04:37:43;14.70;;;4.63;;
72439;SDS011;60446;50.752;4.352;2023-07-22T04:40:11;16.63;;;5.13;;
72439;SDS011;60446;50.752;4.352;2023-07-22T04:42:43;18.00;;;5.75;;
72439;SDS011;60446;50.752;4.352;2023-07-22T04:45:11;19.07;;;6.57;;
72439;SDS011;60446;50.752;4.352;2023-07-22T04:47:38;18.85;;;5.75;;
72439;SDS011;60446;50.752;4.352;2023-07-22T04:50:06;15.93;;;4.93;;
72439;SDS011;60446;50.752;4.352;2023-07-22T04:52:36;16.25;;;5.40;;
72439;SDS011;60446;50.752;4.352;2023-07-22T04:55:03;18.00;;;6.05;;
72439;SDS011;60446;50.752;4.352;2023-07-22T04:57:35;20.43;;;5.07;;
72439;SDS011;60446;50.752;4.352;2023-07-22T05:00:04;17.42;;;5.13;;
72439;SDS011;60446;50.752;4.352;2023-07-22T05:02:32;17.02;;;4.93;;
72439;SDS011;60446;50.752;4.352;2023-07-22T05:04:59;16.15;;;4.50;;
72439;SDS011;60446;50.752;4.352;2023-07-22T05:07:27;17.20;;;5.28;;
72439;SDS011;60446;50.752;4.352;2023-07-22T05:09:56;15.07;;;4.57;;
72439;SDS011;60446;50.752;4.352;2023-07-22T05:12:24;16.08;;;5.22;;
72439;SDS011;60446;50.752;4.352;2023-07-22T05:14:51;13.55;;;5.00;;
72439;SDS011;60446;50.752;4.352;2023-07-22T05:17:18;14.90;;;4.63;;
72439;SDS011;60446;50.752;4.352;2023-07-22T05:19:45;13.32;;;4.03;;
72439;SDS011;60446;50.752;4.352;2023-07-22T05:22:15;17.47;;;4.83;;
72439;SDS011;60446;50.752;4.352;2023-07-22T05:24:42;16.25;;;4.60;;
72439;SDS011;60446;50.752;4.352;2023-07-22T05:27:09;15.75;;;4.85;;
72439;SDS011;60446;50.752;4.352;2023-07-22T05:29:37;18.73;;;5.10;;
72439;SDS011;60446;50.752;4.352;2023-07-22T05:32:04;18.00;;;5.00;;
72439;SDS011;60446;50.752;4.352;2023-07-22T05:34:52;14.83;;;4.57;;
72439;SDS011;60446;50.752;4.352;2023-07-22T05:37:19;17.27;;;4.13;;
72439;SDS011;60446;50.752;4.352;2023-07-22T05:39:47;13.38;;;4.38;;
72439;SDS011;60446;50.752;4.352;2023-07-22T05:42:14;14.57;;;5.00;;
72439;SDS011;60446;50.752;4.352;2023-07-22T05:44:41;12.40;;;3.95;;
72439;SDS011;60446;50.752;4.352;2023-07-22T05:47:08;17.10;;;3.13;;
72439;SDS011;60446;50.752;4.352;2023-07-22T05:49:35;15.70;;;4.22;;
72439;SDS011;60446;50.752;4.352;2023-07-22T05:52:03;11.00;;;3.95;;
72439;SDS011;60446;50.752;4.352;2023-07-22T05:54:31;11.82;;;3.53;;
72439;SDS011;60446;50.752;4.352;2023-07-22T05:56:58;15.38;;;3.45;;
72439;SDS011;60446;50.752;4.352;2023-07-22T05:59:25;14.13;;;4.17;;
72439;SDS011;60446;50.752;4.352;2023-07-22T06:01:52;14.52;;;4.22;;
72439;SDS011;60446;50.752;4.352;2023-07-22T06:04:19;13.68;;;4.18;;
72439;SDS011;60446;50.752;4.352;2023-07-22T06:06:47;14.57;;;3.65;;
72439;SDS011;60446;50.752;4.352;2023-07-22T06:09:14;17.77;;;4.07;;
72439;SDS011;60446;50.752;4.352;2023-07-22T06:11:41;13.90;;;3.90;;
72439;SDS011;60446;50.752;4.352;2023-07-22T06:14:08;11.30;;;3.63;;
72439;SDS011;60446;50.752;4.352;2023-07-22T06:16:35;11.68;;;2.80;;
72439;SDS011;60446;50.752;4.352;2023-07-22T06:19:03;11.13;;;3.33;;
72439;SDS011;60446;50.752;4.352;2023-07-22T06:21:31;13.88;;;3.47;;
72439;SDS011;60446;50.752;4.352;2023-07-22T06:23:58;16.63;;;3.40;;
72439;SDS011;60446;50.752;4.352;2023-07-22T06:26:25;13.68;;;3.70;;
72439;SDS011;60446;50.752;4.352;2023-07-22T06:28:53;11.43;;;2.97;;
72439;SDS011;60446;50.752;4.352;2023-07-22T06:31:20;10.98;;;3.63;;
72439;SDS011;60446;50.752;4.352;2023-07-22T06:33:48;13.25;;;4.10;;
72439;SDS011;60446;50.752;4.352;2023-07-22T06:36:15;11.60;;;3.77;;
72439;SDS011;60446;50.752;4.352;2023-07-22T06:38:44;14.68;;;3.65;;
72439;SDS011;60446;50.752;4.352;2023-07-22T06:41:11;17.67;;;3.67;;
72439;SDS011;60446;50.752;4.352;2023-07-22T06:43:38;11.45;;;3.45;;
72439;SDS011;60446;50.752;4.352;2023-07-22T06:46:05;11.98;;;3.70;;
72439;SDS011;60446;50.752;4.352;2023-07-22T06:48:32;12.77;;;4.57;;
72439;SDS011;60446;50.752;4.352;2023-07-22T06:50:59;9.65;;;3.65;;
72439;SDS011;60446;50.752;4.352;2023-07-22T06:53:27;12.05;;;3.38;;
72439;SDS011;60446;50.752;4.352;2023-07-22T06:55:54;11.82;;;3.33;;
72439;SDS011;60446;50.752;4.352;2023-07-22T06:58:21;9.27;;;3.08;;
72439;SDS011;60446;50.752;4.352;2023-07-22T07:00:53;13.00;;;3.00;;
72439;SDS011;60446;50.752;4.352;2023-07-22T07:03:22;11.48;;;3.42;;
72439;SDS011;60446;50.752;4.352;2023-07-22T07:05:56;10.23;;;3.20;;
72439;SDS011;60446;50.752;4.352;2023-07-22T07:08:23;12.48;;;3.70;;
72439;SDS011;60446;50.752;4.352;2023-07-22T07:10:51;8.80;;;2.90;;
72439;SDS011;60446;50.752;4.352;2023-07-22T07:13:18;13.60;;;3.70;;
72439;SDS011;60446;50.752;4.352;2023-07-22T07:15:46;12.65;;;2.92;;
72439;SDS011;60446;50.752;4.352;2023-07-22T07:18:17;13.55;;;3.63;;
72439;SDS011;60446;50.752;4.352;2023-07-22T07:20:44;9.10;;;3.33;;
72439;SDS011;60446;50.752;4.352;2023-07-22T07:23:12;11.80;;;3.30;;
72439;SDS011;60446;50.752;4.352;2023-07-22T07:25:42;11.67;;;3.57;;
72439;SDS011;60446;50.752;4.352;2023-07-22T07:28:09;11.75;;;3.42;;
72439;SDS011;60446;50.752;4.352;2023-07-22T07:30:38;10.52;;;3.10;;
72439;SDS011;60446;50.752;4.352;2023-07-22T07:33:06;13.57;;;3.17;;
72439;SDS011;60446;50.752;4.352;2023-07-22T07:35:33;10.00;;;3.10;;
72439;SDS011;60446;50.752;4.352;2023-07-22T07:38:00;12.43;;;3.20;;
72439;SDS011;60446;50.752;4.352;2023-07-22T07:40:27;8.45;;;3.10;;
72439;SDS011;60446;50.752;4.352;2023-07-22T07:42:55;9.50;;;2.92;;
72439;SDS011;60446;50.752;4.352;2023-07-22T07:45:22;8.65;;;2.60;;
72439;SDS011;60446;50.752;4.352;2023-07-22T07:47:49;9.82;;;2.83;;
72439;SDS011;60446;50.752;4.352;2023-07-22T07:50:17;12.90;;;3.37;;
72439;SDS011;60446;50.752;4.352;2023-07-22T07:52:44;9.50;;;3.38;;
72439;SDS011;60446;50.752;4.352;2023-07-22T07:55:11;12.45;;;2.95;;
72439;SDS011;60446;50.752;4.352;2023-07-22T07:57:38;9.23;;;2.67;;
72439;SDS011;60446;50.752;4.352;2023-07-22T08:00:06;9.15;;;2.22;;
72439;SDS011;60446;50.752;4.352;2023-07-22T08:02:36;8.80;;;2.43;;
72439;SDS011;60446;50.752;4.352;2023-07-22T08:05:04;10.85;;;2.58;;
72439;SDS011;60446;50.752;4.352;2023-07-22T08:07:32;8.90;;;3.25;;
72439;SDS011;60446;50.752;4.352;2023-07-22T08:09:59;15.73;;;2.78;;
72439;SDS011;60446;50.752;4.352;2023-07-22T08:12:27;11.55;;;2.70;;
72439;SDS011;60446;50.752;4.352;2023-07-22T08:14:54;9.80;;;2.43;;
72439;SDS011;60446;50.752;4.352;2023-07-22T08:17:22;8.25;;;2.65;;
72439;SDS011;60446;50.752;4.352;2023-07-22T08:19:49;9.23;;;2.38;;
72439;SDS011;60446;50.752;4.352;2023-07-22T08:22:16;8.25;;;3.03;;
72439;SDS011;60446;50.752;4.352;2023-07-22T08:24:44;9.77;;;2.70;;
72439;SDS011;60446;50.752;4.352;2023-07-22T08:27:15;8.40;;;2.37;;
72439;SDS011;60446;50.752;4.352;2023-07-22T08:29:42;8.45;;;2.47;;
72439;SDS011;60446;50.752;4.352;2023-07-22T08:32:09;9.57;;;2.80;;
72439;SDS011;60446;50.752;4.352;2023-07-22T08:34:36;6.65;;;1.85;;
72439;SDS011;60446;50.752;4.352;2023-07-22T08:37:03;9.05;;;2.60;;
72439;SDS011;60446;50.752;4.352;2023-07-22T08:39:31;8.47;;;2.43;;
72439;SDS011;60446;50.752;4.352;2023-07-22T08:41:59;7.50;;;2.28;;
72439;SDS011;60446;50.752;4.352;2023-07-22T08:44:31;9.07;;;2.17;;
72439;SDS011;60446;50.752;4.352;2023-07-22T08:47:02;7.05;;;2.50;;
72439;SDS011;60446;50.752;4.352;2023-07-22T08:49:31;6.78;;;2.72;;
72439;SDS011;60446;50.752;4.352;2023-07-22T08:52:00;6.47;;;1.90;;
72439;SDS011;60446;50.752;4.352;2023-07-22T08:54:27;6.47;;;1.70;;
72439;SDS011;60446;50.752;4.352;2023-07-22T08:56:55;6.20;;;1.63;;
72439;SDS011;60446;50.752;4.352;2023-07-22T08:59:23;6.72;;;1.80;;
72439;SDS011;60446;50.752;4.352;2023-07-22T09:01:52;5.03;;;1.58;;
72439;SDS011;60446;50.752;4.352;2023-07-22T09:04:20;7.00;;;1.57;;
72439;SDS011;60446;50.752;4.352;2023-07-22T09:06:49;8.25;;;1.83;;
72439;SDS011;60446;50.752;4.352;2023-07-22T09:09:17;6.57;;;1.67;;
72439;SDS011;60446;50.752;4.352;2023-07-22T09:11:45;5.53;;;1.52;;
72439;SDS011;60446;50.752;4.352;2023-07-22T09:14:13;6.40;;;1.10;;
72439;SDS011;60446;50.752;4.352;2023-07-22T09:17:01;5.70;;;1.50;;
72439;SDS011;60446;50.752;4.352;2023-07-22T09:19:29;4.93;;;1.52;;
72439;SDS011;60446;50.752;4.352;2023-07-22T09:21:57;6.63;;;1.10;;
72439;SDS011;60446;50.752;4.352;2023-07-22T09:24:25;6.50;;;1.17;;
72439;SDS011;60446;50.752;4.352;2023-07-22T09:26:54;4.78;;;1.50;;
72439;SDS011;60446;50.752;4.352;2023-07-22T09:29:32;6.50;;;1.73;;
72439;SDS011;60446;50.752;4.352;2023-07-22T09:32:01;5.43;;;1.13;;
72439;SDS011;60446;50.752;4.352;2023-07-22T09:34:30;6.13;;;1.10;;
72439;SDS011;60446;50.752;4.352;2023-07-22T09:36:58;5.15;;;1.10;;
72439;SDS011;60446;50.752;4.352;2023-07-22T09:39:30;5.32;;;1.42;;
72439;SDS011;60446;50.752;4.352;2023-07-22T09:41:57;6.27;;;1.40;;
72439;SDS011;60446;50.752;4.352;2023-07-22T09:44:30;5.75;;;1.20;;
72439;SDS011;60446;50.752;4.352;2023-07-22T09:47:06;5.65;;;1.13;;
72439;SDS011;60446;50.752;4.352;2023-07-22T09:49:40;4.90;;;1.30;;
72439;SDS011;60446;50.752;4.352;2023-07-22T09:52:09;6.05;;;1.58;;
72439;SDS011;60446;50.752;4.352;2023-07-22T09:54:46;4.83;;;1.60;;
72439;SDS011;60446;50.752;4.352;2023-07-22T09:57:15;5.13;;;1.50;;
72439;SDS011;60446;50.752;4.352;2023-07-22T09:59:42;4.47;;;1.33;;
72439;SDS011;60446;50.752;4.352;2023-07-22T10:02:10;5.28;;;1.23;;
72439;SDS011;60446;50.752;4.352;2023-07-22T10:04:38;4.97;;;1.10;;
72439;SDS011;60446;50.752;4.352;2023-07-22T10:07:06;4.33;;;1.40;;
72439;SDS011;60446;50.752;4.352;2023-07-22T10:09:35;5.13;;;1.25;;
72439;SDS011;60446;50.752;4.352;2023-07-22T10:12:05;6.18;;;1.15;;
72439;SDS011;60446;50.752;4.352;2023-07-22T10:14:33;5.80;;;1.40;;
72439;SDS011;60446;50.752;4.352;2023-07-22T10:17:04;4.47;;;1.13;;
72439;SDS011;60446;50.752;4.352;2023-07-22T10:19:33;3.27;;;0.97;;
72439;SDS011;60446;50.752;4.352;2023-07-22T10:22:01;4.82;;;1.20;;
72439;SDS011;60446;50.752;4.352;2023-07-22T10:24:29;3.95;;;0.85;;
72439;SDS011;60446;50.752;4.352;2023-07-22T10:26:57;4.15;;;1.15;;
72439;SDS011;60446;50.752;4.352;2023-07-22T10:29:25;3.10;;;0.88;;
72439;SDS011;60446;50.752;4.352;2023-07-22T10:31:53;5.10;;;1.20;;
72439;SDS011;60446;50.752;4.352;2023-07-22T10:34:21;3.72;;;1.02;;
72439;SDS011;60446;50.752;4.352;2023-07-22T10:36:50;4.07;;;1.00;;
72439;SDS011;60446;50.752;4.352;2023-07-22T10:39:27;3.15;;;0.90;;
72439;SDS011;60446;50.752;4.352;2023-07-22T10:42:01;5.07;;;1.20;;
72439;SDS011;60446;50.752;4.352;2023-07-22T10:44:40;5.47;;;1.30;;
72439;SDS011;60446;50.752;4.352;2023-07-22T10:47:07;4.72;;;1.30;;
72439;SDS011;60446;50.752;4.352;2023-07-22T10:49:45;5.28;;;0.88;;
72439;SDS011;60446;50.752;4.352;2023-07-22T10:52:20;4.65;;;1.00;;
72439;SDS011;60446;50.752;4.352;2023-07-22T10:55:17;5.05;;;1.17;;
72439;SDS011;60446;50.752;4.352;2023-07-22T10:57:49;6.27;;;1.47;;
72439;SDS011;60446;50.752;4.352;2023-07-22T11:00:22;4.82;;;1.50;;
72439;SDS011;60446;50.752;4.352;2023-07-22T11:05:47;3.50;;;1.02;;
72439;SDS011;60446;50.752;4.352;2023-07-22T11:08:35;5.90;;;1.30;;
72439;SDS011;60446;50.752;4.352;2023-07-22T11:11:07;4.50;;;1.40;;
72439;SDS011;60446;50.752;4.352;2023-07-22T11:13:34;4.78;;;1.45;;
72439;SDS011;60446;50.752;4.352;2023-07-22T11:16:09;4.97;;;1.70;;
72439;SDS011;60446;50.752;4.352;2023-07-22T11:18:39;5.80;;;1.60;;
72439;SDS011;60446;50.752;4.352;2023-07-22T11:21:09;6.20;;;2.00;;
72439;SDS011;60446;50.752;4.352;2023-07-22T11:23:38;5.83;;;2.07;;
72439;SDS011;60446;50.752;4.352;2023-07-22T11:26:05;6.10;;;1.60;;
72439;SDS011;60446;50.752;4.352;2023-07-22T11:28:32;5.80;;;1.50;;
72439;SDS011;60446;50.752;4.352;2023-07-22T11:31:00;5.20;;;1.48;;
72439;SDS011;60446;50.752;4.352;2023-07-22T11:33:37;4.68;;;1.48;;
72439;SDS011;60446;50.752;4.352;2023-07-22T11:36:06;5.20;;;2.00;;
72439;SDS011;60446;50.752;4.352;2023-07-22T11:38:33;5.40;;;1.73;;
72439;SDS011;60446;50.752;4.352;2023-07-22T11:41:01;5.68;;;1.58;;
72439;SDS011;60446;50.752;4.352;2023-07-22T11:43:28;5.38;;;1.73;;
72439;SDS011;60446;50.752;4.352;2023-07-22T11:45:55;5.10;;;1.60;;
72439;SDS011;60446;50.752;4.352;2023-07-22T11:48:23;4.80;;;1.50;;
72439;SDS011;60446;50.752;4.352;2023-07-22T11:50:50;5.30;;;1.88;;
72439;SDS011;60446;50.752;4.352;2023-07-22T11:53:17;5.75;;;1.77;;
72439;SDS011;60446;50.752;4.352;2023-07-22T11:55:45;5.35;;;1.40;;
72439;SDS011;60446;50.752;4.352;2023-07-22T11:58:13;4.65;;;1.45;;
72439;SDS011;60446;50.752;4.352;2023-07-22T12:00:43;4.90;;;1.40;;
72439;SDS011;60446;50.752;4.352;2023-07-22T12:03:32;5.53;;;1.30;;
72439;SDS011;60446;50.752;4.352;2023-07-22T12:06:03;5.05;;;1.60;;
72439;SDS011;60446;50.752;4.352;2023-07-22T12:08:33;5.28;;;1.40;;
72439;SDS011;60446;50.752;4.352;2023-07-22T12:11:02;6.05;;;1.58;;
72439;SDS011;60446;50.752;4.352;2023-07-22T12:13:35;6.90;;;1.73;;
72439;SDS011;60446;50.752;4.352;2023-07-22T12:16:04;5.38;;;1.63;;
72439;SDS011;60446;50.752;4.352;2023-07-22T12:18:43;6.32;;;1.60;;
72439;SDS011;60446;50.752;4.352;2023-07-22T12:21:11;5.18;;;1.67;;
72439;SDS011;60446;50.752;4.352;2023-07-22T12:23:40;5.32;;;1.58;;
72439;SDS011;60446;50.752;4.352;2023-07-22T12:26:09;4.43;;;1.40;;
72439;SDS011;60446;50.752;4.352;2023-07-22T12:28:36;3.97;;;0.98;;
72439;SDS011;60446;50.752;4.352;2023-07-22T12:31:03;4.90;;;1.42;;
72439;SDS011;60446;50.752;4.352;2023-07-22T12:33:30;4.72;;;1.40;;
72439;SDS011;60446;50.752;4.352;2023-07-22T12:35:58;4.18;;;1.30;;
72439;SDS011;60446;50.752;4.352;2023-07-22T12:38:25;3.53;;;1.20;;
72439;SDS011;60446;50.752;4.352;2023-07-22T12:40:52;5.95;;;1.35;;
72439;SDS011;60446;50.752;4.352;2023-07-22T12:43:19;3.92;;;1.30;;
72439;SDS011;60446;50.752;4.352;2023-07-22T12:45:47;5.20;;;1.30;;
72439;SDS011;60446;50.752;4.352;2023-07-22T12:48:14;5.95;;;1.30;;
72439;SDS011;60446;50.752;4.352;2023-07-22T12:50:45;6.27;;;1.50;;
72439;SDS011;60446;50.752;4.352;2023-07-22T12:53:14;4.70;;;1.48;;
72439;SDS011;60446;50.752;4.352;2023-07-22T12:55:41;4.45;;;1.42;;
72439;SDS011;60446;50.752;4.352;2023-07-22T12:58:08;3.88;;;1.23;;
72439;SDS011;60446;50.752;4.352;2023-07-22T13:00:36;4.32;;;1.40;;
72439;SDS011;60446;50.752;4.352;2023-07-22T13:03:03;5.57;;;1.33;;
72439;SDS011;60446;50.752;4.352;2023-07-22T13:05:30;5.97;;;1.60;;
72439;SDS011;60446;50.752;4.352;2023-07-22T13:07:57;5.07;;;1.52;;
72439;SDS011;60446;50.752;4.352;2023-07-22T13:10:31;4.93;;;1.67;;
72439;SDS011;60446;50.752;4.352;2023-07-22T13:12:59;5.57;;;1.30;;
72439;SDS011;60446;50.752;4.352;2023-07-22T13:15:27;3.23;;;1.00;;
72439;SDS011;60446;50.752;4.352;2023-07-22T13:17:54;4.50;;;1.20;;
72439;SDS011;60446;50.752;4.352;2023-07-22T13:20:21;6.35;;;1.30;;
72439;SDS011;60446;50.752;4.352;2023-07-22T13:22:48;5.57;;;1.60;;
72439;SDS011;60446;50.752;4.352;2023-07-22T13:25:15;5.35;;;1.33;;
72439;SDS011;60446;50.752;4.352;2023-07-22T13:27:42;4.00;;;1.50;;
72439;SDS011;60446;50.752;4.352;2023-07-22T13:30:10;3.97;;;1.25;;
72439;SDS011;60446;50.752;4.352;2023-07-22T13:32:37;5.32;;;1.42;;
72439;SDS011;60446;50.752;4.352;2023-07-22T13:35:06;6.25;;;1.60;;
72439;SDS011;60446;50.752;4.352;2023-07-22T13:37:35;5.40;;;1.30;;
72439;SDS011;60446;50.752;4.352;2023-07-22T13:40:03;6.37;;;1.50;;
72439;SDS011;60446;50.752;4.352;2023-07-22T13:42:37;4.45;;;1.17;;
72439;SDS011;60446;50.752;4.352;2023-07-22T13:45:04;7.15;;;1.60;;
72439;SDS011;60446;50.752;4.352;2023-07-22T13:47:32;5.35;;;1.55;;
72439;SDS011;60446;50.752;4.352;2023-07-22T13:49:59;6.22;;;1.85;;
72439;SDS011;60446;50.752;4.352;2023-07-22T13:52:27;5.20;;;1.40;;
72439;SDS011;60446;50.752;4.352;2023-07-22T13:54:54;4.03;;;1.40;;
72439;SDS011;60446;50.752;4.352;2023-07-22T13:57:21;3.92;;;1.33;;
72439;SDS011;60446;50.752;4.352;2023-07-22T13:59:48;6.28;;;1.50;;
72439;SDS011;60446;50.752;4.352;2023-07-22T14:02:16;4.60;;;1.20;;
72439;SDS011;60446;50.752;4.352;2023-07-22T14:04:43;4.00;;;1.20;;
72439;SDS011;60446;50.752;4.352;2023-07-22T14:07:10;5.15;;;1.38;;
72439;SDS011;60446;50.752;4.352;2023-07-22T14:09:37;6.70;;;1.27;;
72439;SDS011;60446;50.752;4.352;2023-07-22T14:12:05;4.45;;;1.95;;
72439;SDS011;60446;50.752;4.352;2023-07-22T14:14:32;4.60;;;1.65;;
72439;SDS011;60446;50.752;4.352;2023-07-22T14:17:00;6.33;;;1.70;;
72439;SDS011;60446;50.752;4.352;2023-07-22T14:19:27;6.15;;;2.03;;
72439;SDS011;60446;50.752;4.352;2023-07-22T14:21:54;5.25;;;1.70;;
72439;SDS011;60446;50.752;4.352;2023-07-22T14:24:21;5.70;;;1.42;;
72439;SDS011;60446;50.752;4.352;2023-07-22T14:26:49;6.22;;;1.92;;
72439;SDS011;60446;50.752;4.352;2023-07-22T14:29:16;5.87;;;2.10;;
72439;SDS011;60446;50.752;4.352;2023-07-22T14:31:43;5.60;;;2.03;;
72439;SDS011;60446;50.752;4.352;2023-07-22T14:34:10;6.22;;;2.28;;
72439;SDS011;60446;50.752;4.352;2023-07-22T14:36:37;8.77;;;2.67;;
72439;SDS011;60446;50.752;4.352;2023-07-22T14:39:05;6.43;;;2.30;;
72439;SDS011;60446;50.752;4.352;2023-07-22T14:41:32;5.90;;;1.93;;
72439;SDS011;60446;50.752;4.352;2023-07-22T14:44:00;4.78;;;2.08;;
72439;SDS011;60446;50.752;4.352;2023-07-22T14:46:27;5.40;;;2.08;;
72439;SDS011;60446;50.752;4.352;2023-07-22T14:48:55;5.68;;;1.75;;
72439;SDS011;60446;50.752;4.352;2023-07-22T14:51:22;4.43;;;1.40;;